Algoa, TX

3:41 PM CDT on September 18, 2014 (GMT -0500)
CoffeeMuses | Change Station
CLOSE
Current Station
Personal Weather Station
Location: Alvin, TX
Elevation: 39 ft
Nearby Weather Stations
Active Advisory: Areal Flood Watch

Elev 39 ft 29.41 °N, 95.23 °W | Updated 2 minutes ago

Overcast
Overcast
76.5 °F
Feels Like 76 °F
N
5.3
Wind Variable Wind from ESE

Today
High -- | Low -- °F
--% Chance of Precip.
Yesterday
High -- | Low -- °F
Precip. -- in
7:07 AM 7:22 PM
Waning Crescent, 24% visible
Pressure 29.88 in
Visibility 10.0 miles
Clouds Mostly Cloudy 500 ft
Overcast 5000 ft
Heat Index 76 °F
Dew Point 76 °F
Humidity 98%
Rainfall 0.40 in
Snow Depth Not available.
UV 2 out of 12
Pollen 1.00 out of 12
Ozone Good
PM2.5 Good
Flu Activity Not available.
SPECI KLVJ 182010Z AUTO 10007KT 10SM BKN005 OVC050 26/24 A2988 RMK AO2 T02560239

More Conditions Fewer Conditions

Pressure 29.88 in
Visibility 10.0 miles
Clouds Mostly Cloudy 500 ft
Overcast 5000 ft
Heat Index 76 °F
Dew Point 76 °F
Humidity 98%
Rainfall 0.40 in
Snow Depth Not available.
UV 2 out of 12
Pollen 1.00 out of 12
Ozone Good
PM2.5 Good
Flu Activity Not available.
SPECI KLVJ 182010Z AUTO 10007KT 10SM BKN005 OVC050 26/24 A2988 RMK AO2 T02560239

More Conditions Fewer Conditions

10-Day Weather Forecast

Almanac

Astronomy

Sep. 18, 2014 Rise Set
Actual Time 7:07 AM CDT 7:22 PM CDT
Civil Twilight 6:43 AM CDT 7:46 PM CDT
Nautical Twilight 6:15 AM CDT 8:13 PM CDT
Astronomical Twilight 5:47 AM CDT 8:41 PM CDT
Moon 2:17 AM CDT 3:57 PM CDT
Length of Visible Light 13h 02m
Length of Day
12h 15m
Tomorrow will be 1m 45s shorter.
Waning Crescent, 24% of the Moon is Illuminated
Today
Waning Crescent
Sep 24
New
Oct 1
First Quarter
Oct 8
Full
Oct 15
Last Quarter

Today's Extremes

State Highs State Lows

Community

WunderPhotos

Upload Photos

1,754,430 photos uploaded!

WunderBlogs® & News

By Dr. Jeff Masters
Director of Meteorology, Weather Underground
By Kari Strenfel
Meteorologist, Weather Underground
By Christopher C. Burt
Weather Historian, Weather Underground
September 18, 2014
September 18, 2014
September 18, 2014

Nearby

Air Quality

  Air Quality AQ Index Pollutant
Yesterday Good
PM2.5
Yesterday Good
OZONE
Current Good
PM2.5
Current Good
OZONE
Thursday Good
OZONE
Thursday Good
PM10
Friday Good
OZONE
Friday Good
PM10
Saturday Good
OZONE
Saturday Good
PM10
Sunday Good
OZONE
Sunday Good
PM10

Snow Depth

Station Depth Elevation
No new snow has been reported.

Earthquake Activity

City Distance Mag. Time & Date
No recent earthquake activity has been reported nearby.
Minimum magnitude displayed is 2.5.

Coastal Water Temperatures

Place Temperature
Eagle Point, TX 81.0 °F
USCG Freeport, TX 84.0 °F
Galveston Pier TX 82.9 °F
Galveston Bay (North Jetty), TX 82.9 °F
Rollover Pass, TX 80.1 °F

Nearby Weather Stations